Time;durP1;ratioP1;P1;durP2;ratioP2;P2;SDS_P1;SDS_P2;PMS_P1;PMS_P2;Temp;Humidity;BMP_temperature;BMP_pressure;BME280_temperature;BME280_humidity;BME280_pressure;Samples;Min_cycle;Max_cycle;Signal;HPM_P1;HPM_P2
2023/07/08 00:00:25;;;;;;;138.68;132.65;;;;;;;30.26;28.63;101518.50;5092278;28;20360;-72
2023/07/08 00:02:52;;;;;;;143.88;137.68;;;;;;;30.22;28.54;101517.59;5092988;28;20085;-71
2023/07/08 00:05:19;;;;;;;138.10;132.10;;;;;;;30.19;28.71;101505.97;5093193;28;20081;-71
2023/07/08 00:07:45;;;;;;;135.80;129.60;;;;;;;30.16;28.76;101503.09;5092778;28;20440;-74
2023/07/08 00:10:19;;;;;;;138.32;131.93;;;;;;;30.14;28.86;101508.22;5093275;28;20127;-71
2023/07/08 00:12:48;;;;;;;136.77;130.88;;;;;;;30.10;28.81;101504.53;5093219;28;20104;-71
2023/07/08 00:15:15;;;;;;;134.93;129.10;;;;;;;30.06;29.04;101496.06;5093336;28;20361;-71
2023/07/08 00:17:41;;;;;;;144.73;138.43;;;;;;;30.02;29.05;101497.97;5091912;28;20055;-71
2023/07/08 00:20:19;;;;;;;136.60;130.73;;;;;;;30.00;29.16;101491.94;5091895;28;20371;-70
2023/07/08 00:22:46;;;;;;;135.32;129.38;;;;;;;29.96;29.11;101499.38;5093872;28;20031;-72
2023/07/08 00:25:14;;;;;;;138.45;131.90;;;;;;;29.93;29.12;101503.69;5093642;28;20032;-74
2023/07/08 00:27:40;;;;;;;138.82;132.48;;;;;;;29.89;29.26;101502.78;5093292;28;20093;-70
2023/07/08 00:30:18;;;;;;;136.07;130.18;;;;;;;29.86;29.15;101511.03;5093132;28;20417;-71
2023/07/08 00:32:43;;;;;;;128.30;121.88;;;;;;;29.83;29.11;101500.63;5093475;28;20101;-71
2023/07/08 00:35:09;;;;;;;134.45;128.65;;;;;;;29.79;29.08;101497.75;5092912;28;20464;-71
2023/07/08 00:37:34;;;;;;;134.00;128.15;;;;;;;29.76;29.09;101498.44;5095928;28;20031;-71
2023/07/08 00:39:59;;;;;;;131.98;125.88;;;;;;;29.74;29.35;101498.00;5097178;28;20032;-70
2023/07/08 00:42:25;;;;;;;134.13;128.30;;;;;;;29.71;29.26;101495.91;5097543;28;20084;-70
2023/07/08 00:44:51;;;;;;;133.32;127.53;;;;;;;29.67;29.45;101484.69;5097635;28;20028;-71
2023/07/08 00:47:17;;;;;;;129.73;123.93;;;;;;;29.64;29.52;101481.78;5098101;28;20440;-70
2023/07/08 00:49:50;;;;;;;133.98;127.97;;;;;;;29.61;29.54;101488.88;5097029;28;20047;-70
2023/07/08 00:52:24;;;;;;;130.20;124.60;;;;;;;29.58;29.40;101488.75;5096491;28;20051;-70
2023/07/08 00:55:00;;;;;;;132.00;126.32;;;;;;;29.55;29.41;101484.69;5097398;28;20062;-70
2023/07/08 00:57:29;;;;;;;128.70;122.70;;;;;;;29.51;29.82;101478.25;5097048;28;20035;-70
2023/07/08 01:00:04;;;;;;;127.32;121.22;;;;;;;29.48;29.56;101488.09;5096164;28;20114;-71
2023/07/08 01:02:35;;;;;;;126.80;121.30;;;;;;;29.45;29.63;101485.22;5096942;28;20509;-70
2023/07/08 01:05:30;;;;;;;130.27;124.55;;;;;;;29.41;29.70;101473.16;5097325;28;20029;-69
2023/07/08 01:08:00;;;;;;;132.35;126.47;;;;;;;29.37;29.72;101475.84;5087322;28;20130;-70
2023/07/08 01:10:36;;;;;;;127.63;121.93;;;;;;;29.33;29.85;101477.69;5096508;28;20058;-71
2023/07/08 01:13:04;;;;;;;133.95;128.15;;;;;;;29.30;29.46;101476.44;5096722;28;20097;-71
2023/07/08 01:15:36;;;;;;;126.78;121.20;;;;;;;29.27;29.81;101479.13;5096763;28;20054;-71
2023/07/08 01:18:02;;;;;;;126.45;120.95;;;;;;;29.24;30.10;101477.84;5096591;28;20080;-71
2023/07/08 01:20:28;;;;;;;125.82;120.35;;;;;;;29.21;30.10;101484.13;5096583;28;20032;-73
2023/07/08 01:22:53;;;;;;;128.18;122.43;;;;;;;29.18;29.96;101482.06;5096437;28;20181;-71
2023/07/08 01:25:19;;;;;;;132.00;126.22;;;;;;;29.16;29.80;101483.56;5096382;28;20031;-71
2023/07/08 01:27:49;;;;;;;129.80;124.05;;;;;;;29.12;30.08;101475.91;5096521;28;20035;-72
2023/07/08 01:30:16;;;;;;;127.90;122.32;;;;;;;29.09;30.34;101470.25;5095008;28;20031;-72
2023/07/08 01:32:47;;;;;;;128.40;122.80;;;;;;;29.06;30.04;101471.75;5095942;28;20028;-71
2023/07/08 01:35:13;;;;;;;132.55;126.85;;;;;;;29.02;30.10;101472.78;5096275;28;20028;-71
2023/07/08 01:37:49;;;;;;;124.65;119.22;;;;;;;28.99;30.14;101474.28;5096008;28;20034;-71
2023/07/08 01:40:17;;;;;;;122.75;117.43;;;;;;;28.97;29.89;101471.03;5096591;28;20074;-70
2023/07/08 01:42:42;;;;;;;129.18;123.45;;;;;;;28.92;30.48;101474.88;5094538;28;20050;-72
2023/07/08 01:45:17;;;;;;;123.53;118.22;;;;;;;28.90;30.42;101470.81;5096005;28;20110;-70
2023/07/08 01:47:48;;;;;;;124.85;119.32;;;;;;;28.86;30.29;101464.38;5096141;28;20032;-70
2023/07/08 01:50:14;;;;;;;127.30;121.60;;;;;;;28.85;30.38;101473.84;5095082;28;20460;-70
2023/07/08 01:52:40;;;;;;;126.70;120.90;;;;;;;28.81;30.31;101465.41;5095919;28;20062;-73
2023/07/08 01:55:06;;;;;;;123.93;118.32;;;;;;;28.78;30.66;101460.56;5095778;28;20032;-70
2023/07/08 01:57:31;;;;;;;124.10;118.63;;;;;;;28.75;30.65;101457.66;5095895;28;20036;-70
2023/07/08 01:59:57;;;;;;;124.68;119.22;;;;;;;28.72;30.59;101459.16;5095731;28;20032;-72
2023/07/08 02:02:24;;;;;;;123.28;117.63;;;;;;;28.68;30.43;101459.06;5095994;28;20367;-70
2023/07/08 02:04:50;;;;;;;123.50;118.03;;;;;;;28.65;30.54;101454.19;5095263;28;20028;-71
2023/07/08 02:07:15;;;;;;;123.63;118.20;;;;;;;28.62;30.45;101449.31;5095623;28;20028;-70
2023/07/08 02:09:41;;;;;;;121.88;116.50;;;;;;;28.60;30.55;101448.03;5095215;28;20086;-70
2023/07/08 02:12:08;;;;;;;120.88;115.20;;;;;;;28.57;30.76;101451.53;5095857;28;20044;-70
2023/07/08 02:14:33;;;;;;;120.32;115.00;;;;;;;28.53;30.73;101434.75;5095761;28;20051;-69
2023/07/08 02:16:59;;;;;;;119.85;114.55;;;;;;;28.51;30.84;101441.81;5094100;28;20032;-70
2023/07/08 02:19:24;;;;;;;120.53;115.22;;;;;;;28.47;30.70;101441.69;5095516;28;20032;-71
2023/07/08 02:21:51;;;;;;;119.80;114.60;;;;;;;28.44;30.83;101431.25;5095375;28;20533;-69
2023/07/08 02:24:17;;;;;;;120.35;114.97;;;;;;;28.41;30.72;101434.72;5095134;28;20479;-70
2023/07/08 02:26:43;;;;;;;120.03;114.72;;;;;;;28.37;30.72;101437.34;5095550;28;20032;-71
2023/07/08 02:29:09;;;;;;;119.28;113.97;;;;;;;28.34;30.90;101426.94;5093902;28;20028;-69
2023/07/08 02:31:34;;;;;;;119.05;113.65;;;;;;;28.32;31.04;101422.91;5095259;28;20391;-70
2023/07/08 02:34:01;;;;;;;119.05;113.75;;;;;;;28.29;31.22;101421.63;5095051;28;20040;-77
2023/07/08 02:36:28;;;;;;;119.97;114.68;;;;;;;28.25;30.93;101418.75;5093982;28;20032;-71
2023/07/08 02:38:53;;;;;;;119.13;113.82;;;;;;;28.22;31.05;101408.34;5094446;28;20080;-70
2023/07/08 02:41:18;;;;;;;117.40;112.20;;;;;;;28.20;31.12;101409.84;5094981;28;20028;-70
2023/07/08 02:43:44;;;;;;;114.95;109.93;;;;;;;28.17;31.25;101413.28;5094696;28;20035;-70
2023/07/08 02:46:09;;;;;;;118.97;113.70;;;;;;;28.14;31.39;101413.97;5095063;28;20348;-71
2023/07/08 02:48:34;;;;;;;118.50;113.20;;;;;;;28.10;31.22;101413.88;5094885;28;20047;-70
2023/07/08 02:51:02;;;;;;;121.18;115.90;;;;;;;28.07;31.11;101414.53;5094798;28;20040;-71
2023/07/08 02:53:28;;;;;;;121.45;116.05;;;;;;;28.04;31.24;101409.69;5094793;28;20117;-70
2023/07/08 02:55:53;;;;;;;119.53;114.22;;;;;;;28.00;31.09;101409.59;5095535;28;20028;-70
2023/07/08 02:58:19;;;;;;;113.53;108.22;;;;;;;27.98;31.05;101413.84;5094518;28;20452;-71
2023/07/08 03:00:44;;;;;;;110.00;105.00;;;;;;;27.95;31.41;101425.66;5094742;28;20388;-71
2023/07/08 03:03:10;;;;;;;120.97;115.65;;;;;;;27.91;31.35;101419.97;5093597;28;20068;-71
2023/07/08 03:05:36;;;;;;;116.55;111.45;;;;;;;27.90;31.42;101421.13;5094218;28;20028;-70
2023/07/08 03:08:01;;;;;;;114.93;109.90;;;;;;;27.86;31.29;101425.75;5094903;28;20134;-70
2023/07/08 03:10:27;;;;;;;117.47;112.10;;;;;;;27.82;31.60;101433.97;5092758;28;20083;-70
2023/07/08 03:12:53;;;;;;;114.53;109.43;;;;;;;27.81;31.44;101437.03;5094359;28;20036;-73
2023/07/08 03:15:18;;;;;;;114.07;109.03;;;;;;;27.79;31.61;101442.13;5094065;28;20043;-70
2023/07/08 03:17:44;;;;;;;111.15;106.25;;;;;;;27.74;31.41;101437.59;5094721;28;20391;-70
2023/07/08 03:20:10;;;;;;;118.38;112.25;;;;;;;27.72;31.78;101437.16;5094095;28;20115;-70
2023/07/08 03:22:36;;;;;;;117.60;112.07;;;;;;;27.69;31.67;101439.78;5094451;28;20032;-72
2023/07/08 03:25:02;;;;;;;116.93;111.32;;;;;;;27.66;31.59;101440.47;5093377;28;20070;-70
2023/07/08 03:27:28;;;;;;;117.20;112.05;;;;;;;27.62;31.57;101441.16;5094618;28;20028;-69
2023/07/08 03:29:53;;;;;;;113.28;108.28;;;;;;;27.60;31.47;101437.91;5094580;28;20441;-71
2023/07/08 03:32:19;;;;;;;114.57;109.53;;;;;;;27.58;31.52;101444.97;5093969;28;20032;-70
2023/07/08 03:34:44;;;;;;;114.28;109.10;;;;;;;27.55;31.95;101443.69;5093941;28;20031;-74
2023/07/08 03:37:09;;;;;;;116.05;110.70;;;;;;;27.52;31.83;101443.56;5093880;28;20035;-69
2023/07/08 03:39:35;;;;;;;116.88;111.72;;;;;;;27.49;31.80;101445.03;5093832;28;20024;-69
2023/07/08 03:42:01;;;;;;;114.68;109.57;;;;;;;27.47;31.92;101446.50;5094179;28;20040;-70
2023/07/08 03:44:27;;;;;;;112.78;107.78;;;;;;;27.44;32.12;101439.69;5093934;28;20368;-69
2023/07/08 03:46:53;;;;;;;110.95;105.68;;;;;;;27.39;32.08;101437.97;5093669;28;20136;-80
2023/07/08 03:49:23;;;;;;;113.45;108.25;;;;;;;27.38;32.06;101443.84;5092390;28;20032;-70
2023/07/08 03:51:50;;;;;;;112.05;106.93;;;;;;;27.35;31.90;101447.28;5094425;28;20024;-69
2023/07/08 03:54:18;;;;;;;112.63;107.28;;;;;;;27.31;32.05;101447.16;5093922;28;20111;-69
2023/07/08 03:56:44;;;;;;;111.40;106.45;;;;;;;27.28;32.12;101450.59;5093646;28;20107;-73
2023/07/08 03:59:09;;;;;;;111.72;106.65;;;;;;;27.26;32.10;101443.78;5093422;28;20195;-70
2023/07/08 04:01:35;;;;;;;113.10;108.00;;;;;;;27.23;32.06;101453.59;5092981;28;20028;-69
2023/07/08 04:04:01;;;;;;;112.55;106.95;;;;;;;27.20;32.11;101445.94;5093308;28;20479;-69
2023/07/08 04:06:31;;;;;;;111.03;106.07;;;;;;;27.17;32.17;101450.19;5093499;28;20544;-69
2023/07/08 04:08:56;;;;;;;111.50;106.28;;;;;;;27.15;32.13;101451.66;5093314;28;20123;-70
2023/07/08 04:11:23;;;;;;;112.05;107.05;;;;;;;27.12;32.03;101452.34;5092527;28;20134;-70
2023/07/08 04:13:49;;;;;;;110.88;105.90;;;;;;;27.09;32.45;101451.06;5093448;28;20031;-70
2023/07/08 04:16:20;;;;;;;109.38;104.38;;;;;;;27.07;32.61;101445.03;5092952;28;20388;-70
2023/07/08 04:18:45;;;;;;;113.72;108.43;;;;;;;27.03;32.36;101446.84;5093606;28;20020;-72
2023/07/08 04:21:11;;;;;;;107.53;102.68;;;;;;;27.01;32.36;101454.69;5092185;28;20042;-71
2023/07/08 04:23:36;;;;;;;113.35;108.35;;;;;;;26.98;32.28;101445.09;5093166;28;20388;-70
2023/07/08 04:26:01;;;;;;;114.70;109.50;;;;;;;26.95;32.75;101448.53;5093717;28;20039;-70
2023/07/08 04:28:27;;;;;;;112.22;106.93;;;;;;;26.93;32.27;101448.06;5093191;28;20051;-70
2023/07/08 04:30:53;;;;;;;109.13;104.30;;;;;;;26.90;32.52;101459.03;5093235;28;20081;-71
2023/07/08 04:33:18;;;;;;;109.07;104.18;;;;;;;26.88;32.34;101455.78;5093153;28;20035;-71
2023/07/08 04:35:45;;;;;;;108.65;103.75;;;;;;;26.86;32.73;101456.13;5093741;28;20020;-70
2023/07/08 04:38:37;;;;;;;109.13;104.13;;;;;;;26.83;32.45;101455.97;5093319;28;20074;-70
2023/07/08 04:41:02;;;;;;;111.78;106.43;;;;;;;26.80;32.46;101460.22;5091387;28;20051;-69
2023/07/08 04:43:28;;;;;;;107.68;102.47;;;;;;;26.77;32.70;101452.59;5092948;28;20028;-70
2023/07/08 04:45:54;;;;;;;108.20;102.90;;;;;;;26.74;32.45;101443.00;5093083;28;20100;-70
2023/07/08 04:48:21;;;;;;;109.22;104.30;;;;;;;26.72;32.87;101445.28;5092255;28;20464;-70
2023/07/08 04:50:49;;;;;;;107.07;102.38;;;;;;;26.69;32.86;101443.19;5091709;28;20028;-73
2023/07/08 04:53:15;;;;;;;109.70;104.72;;;;;;;26.67;32.56;101437.16;5092857;28;20073;-69
2023/07/08 04:55:44;;;;;;;108.60;103.50;;;;;;;26.65;33.26;101436.69;5093011;28;20040;-68
2023/07/08 04:58:10;;;;;;;109.72;104.80;;;;;;;26.63;33.06;101435.38;5093012;28;20027;-70
2023/07/08 05:00:35;;;;;;;111.30;105.97;;;;;;;26.60;33.07;101431.31;5092774;28;20036;-69
2023/07/08 05:03:01;;;;;;;106.10;101.40;;;;;;;26.59;33.11;101435.25;5092815;28;20045;-71
2023/07/08 05:05:26;;;;;;;107.95;103.00;;;;;;;26.57;33.13;101442.28;5091574;28;20418;-69
2023/07/08 05:07:51;;;;;;;108.75;103.65;;;;;;;26.55;33.38;101443.41;5092814;28;20047;-70
2023/07/08 05:10:18;;;;;;;109.03;104.00;;;;;;;26.53;33.33;101444.88;5092325;28;20051;-70
2023/07/08 05:12:44;;;;;;;106.47;101.53;;;;;;;26.52;33.05;101446.03;5092913;28;20056;-69
2023/07/08 05:15:10;;;;;;;106.43;101.22;;;;;;;26.49;33.65;101446.69;5092780;28;20152;-69
2023/07/08 05:17:37;;;;;;;108.68;103.63;;;;;;;26.48;33.47;101453.38;5092295;28;20032;-69
2023/07/08 05:20:03;;;;;;;105.45;100.75;;;;;;;26.47;33.18;101446.22;5093067;28;20036;-69
2023/07/08 05:22:28;;;;;;;106.15;100.82;;;;;;;26.45;33.65;101442.97;5094695;28;20483;-70
2023/07/08 05:24:57;;;;;;;107.13;102.22;;;;;;;26.43;33.75;101443.28;5096420;28;20028;-74
2023/07/08 05:27:23;;;;;;;108.53;103.32;;;;;;;26.42;33.36;101438.09;5096421;28;20356;-70
2023/07/08 05:29:49;;;;;;;107.60;102.63;;;;;;;26.40;33.37;101449.50;5096344;28;20483;-69
2023/07/08 05:32:15;;;;;;;106.13;101.13;;;;;;;26.39;33.62;101450.66;5096470;28;20030;-71
2023/07/08 05:34:41;;;;;;;107.07;102.05;;;;;;;26.39;33.98;101445.09;5096282;28;20032;-72
2023/07/08 05:37:06;;;;;;;108.57;103.72;;;;;;;26.38;33.75;101445.44;5096270;28;20036;-70
2023/07/08 05:39:32;;;;;;;108.32;103.07;;;;;;;26.38;33.52;101437.13;5096607;28;20047;-70
2023/07/08 05:41:57;;;;;;;109.05;104.05;;;;;;;26.37;33.60;101443.81;5096246;28;20099;-70
2023/07/08 05:44:23;;;;;;;107.28;102.28;;;;;;;26.37;33.88;101443.81;5096543;28;20092;-69
2023/07/08 05:46:49;;;;;;;108.05;103.05;;;;;;;26.36;33.88;101447.72;5096108;28;20032;-72
2023/07/08 05:49:15;;;;;;;107.50;102.55;;;;;;;26.33;34.04;101452.81;5095999;28;20070;-69
2023/07/08 05:51:40;;;;;;;106.55;101.57;;;;;;;26.33;34.28;101441.72;5096354;28;20111;-71
2023/07/08 05:54:06;;;;;;;106.85;101.57;;;;;;;26.34;33.73;101439.75;5095204;28;20372;-71
2023/07/08 05:56:31;;;;;;;106.20;101.25;;;;;;;26.33;33.82;101438.94;5095637;28;20039;-71
2023/07/08 05:58:57;;;;;;;106.07;100.93;;;;;;;26.33;34.01;101440.88;5095745;28;20123;-76
2023/07/08 06:01:22;;;;;;;106.82;101.88;;;;;;;26.33;34.25;101440.88;5095727;28;20031;-69
2023/07/08 06:03:48;;;;;;;109.15;104.15;;;;;;;26.32;34.13;101444.81;5096064;28;20064;-69
2023/07/08 06:06:13;;;;;;;107.20;102.20;;;;;;;26.32;34.40;101444.81;5096132;28;20024;-70
2023/07/08 06:08:39;;;;;;;106.85;101.88;;;;;;;26.31;34.59;101443.19;5095644;28;20484;-70
2023/07/08 06:11:04;;;;;;;106.93;101.70;;;;;;;26.32;34.23;101448.38;5095654;28;20487;-70
2023/07/08 06:13:30;;;;;;;108.28;103.38;;;;;;;26.31;34.36;101443.19;5094524;28;20035;-70
2023/07/08 06:15:56;;;;;;;107.53;102.45;;;;;;;26.32;34.82;101447.59;5095931;28;20392;-69
2023/07/08 06:18:21;;;;;;;109.57;104.35;;;;;;;26.30;34.85;101453.44;5096201;28;20036;-80
2023/07/08 06:20:58;;;;;;;108.60;103.63;;;;;;;26.29;34.56;101451.81;5094529;28;20360;-69
2023/07/08 06:23:23;;;;;;;107.32;102.25;;;;;;;26.29;34.71;101451.03;5095454;28;20039;-76
2023/07/08 06:25:49;;;;;;;105.07;100.10;;;;;;;26.29;34.80;101456.56;5094173;28;20028;-70
2023/07/08 06:28:15;;;;;;;106.50;101.30;;;;;;;26.28;34.96;101464.06;5095832;28;20032;-69
2023/07/08 06:30:40;;;;;;;108.80;103.50;;;;;;;26.27;34.91;101451.34;5095823;28;20039;-70
2023/07/08 06:33:06;;;;;;;108.72;103.53;;;;;;;26.28;35.25;101453.00;5093891;28;20436;-71
2023/07/08 06:35:31;;;;;;;106.97;101.25;;;;;;;26.29;35.29;101446.28;5095137;28;20464;-70
2023/07/08 06:37:57;;;;;;;106.70;101.60;;;;;;;26.29;35.49;101451.81;5095171;28;20105;-70
2023/07/08 06:40:22;;;;;;;109.75;103.50;;;;;;;26.29;35.62;101443.53;5095330;28;20024;-69
2023/07/08 06:42:48;;;;;;;109.55;104.18;;;;;;;26.28;35.67;101450.22;5095086;28;20028;-70
2023/07/08 06:45:13;;;;;;;103.68;98.70;;;;;;;26.28;35.38;101453.00;5095252;28;20031;-71
2023/07/08 06:47:39;;;;;;;103.65;98.57;;;;;;;26.29;36.08;101462.09;5095405;28;20024;-71
2023/07/08 06:50:06;;;;;;;103.60;98.70;;;;;;;26.28;35.86;101453.00;5093571;28;20028;-72
2023/07/08 06:52:34;;;;;;;104.88;100.00;;;;;;;26.30;35.80;101455.41;5093502;28;20077;-70
2023/07/08 06:55:07;;;;;;;102.23;97.40;;;;;;;26.32;35.61;101448.38;5095880;28;20123;-71
2023/07/08 06:57:33;;;;;;;108.22;102.88;;;;;;;26.36;35.84;101456.84;5093399;28;20020;-71
2023/07/08 06:59:59;;;;;;;110.82;105.40;;;;;;;26.38;36.19;101456.50;5094870;28;20035;-72
2023/07/08 07:02:25;;;;;;;108.03;102.93;;;;;;;26.38;35.67;101451.78;5093942;28;20460;-72
2023/07/08 07:04:50;;;;;;;107.57;102.43;;;;;;;26.41;35.72;101447.53;5094833;28;20031;-71
2023/07/08 07:07:16;;;;;;;109.97;104.88;;;;;;;26.44;36.16;101435.81;5094806;28;20039;-72
2023/07/08 07:09:41;;;;;;;108.35;103.25;;;;;;;26.44;35.96;101436.59;5094557;28;20460;-71
2023/07/08 07:12:07;;;;;;;107.38;102.28;;;;;;;26.46;36.41;101445.41;5095490;28;20134;-71
2023/07/08 07:14:33;;;;;;;108.30;103.13;;;;;;;26.49;36.18;101446.69;5093185;28;20393;-72
2023/07/08 07:16:59;;;;;;;108.32;102.68;;;;;;;26.51;36.20;101444.38;5094236;28;20036;-71
2023/07/08 07:19:24;;;;;;;106.40;101.20;;;;;;;26.53;36.40;101436.56;5094759;28;20112;-71
2023/07/08 07:21:51;;;;;;;105.15;100.15;;;;;;;26.54;36.64;101441.81;5094439;28;20085;-70
2023/07/08 07:24:16;;;;;;;104.47;99.45;;;;;;;26.57;36.55;101437.53;5094071;28;20417;-70
2023/07/08 07:26:42;;;;;;;106.07;100.47;;;;;;;26.60;36.73;101453.50;5093112;28;20039;-72
2023/07/08 07:29:07;;;;;;;107.97;102.85;;;;;;;26.62;36.71;101451.22;5094396;28;20031;-72
2023/07/08 07:31:32;;;;;;;108.20;103.32;;;;;;;26.65;36.71;101450.53;5093381;28;20510;-72
2023/07/08 07:33:59;;;;;;;107.00;101.97;;;;;;;26.70;36.98;101435.69;5092973;28;20038;-71
2023/07/08 07:36:25;;;;;;;107.60;102.68;;;;;;;26.72;36.76;101436.97;5093098;28;20071;-71
2023/07/08 07:38:50;;;;;;;106.80;101.32;;;;;;;26.76;37.05;101429.63;5092652;28;20109;-73
2023/07/08 07:41:16;;;;;;;111.50;105.90;;;;;;;26.82;36.68;101437.72;5093838;28;20024;-71
2023/07/08 07:43:41;;;;;;;107.75;102.75;;;;;;;26.85;36.67;101437.06;5075986;28;20038;-73
2023/07/08 07:46:07;;;;;;;112.43;107.22;;;;;;;26.89;37.07;101438.81;5094049;28;20032;-71
2023/07/08 07:48:33;;;;;;;113.30;107.85;;;;;;;26.94;36.69;101440.59;5094117;28;20043;-72
2023/07/08 07:50:58;;;;;;;110.97;105.72;;;;;;;26.98;36.96;101444.28;5094601;28;20024;-71
2023/07/08 07:53:24;;;;;;;111.65;106.32;;;;;;;27.03;36.82;101440.50;5093725;28;20085;-71
2023/07/08 07:55:59;;;;;;;110.22;104.82;;;;;;;27.09;37.10;101447.47;5093898;28;20033;-71
2023/07/08 07:58:25;;;;;;;112.70;107.30;;;;;;;27.13;36.76;101445.66;5094509;28;20032;-71
2023/07/08 08:00:51;;;;;;;112.75;107.25;;;;;;;27.18;36.59;101437.97;5094074;28;20463;-72
2023/07/08 08:03:17;;;;;;;113.88;108.68;;;;;;;27.23;36.84;101427.81;5094610;28;20024;-71
2023/07/08 08:05:42;;;;;;;112.57;106.90;;;;;;;27.28;36.91;101431.19;5093988;28;20115;-73
2023/07/08 08:08:08;;;;;;;114.88;109.55;;;;;;;27.34;36.99;101431.78;5093858;28;20115;-71
2023/07/08 08:10:35;;;;;;;114.88;109.47;;;;;;;27.39;36.94;101434.34;5093968;28;20056;-73
2023/07/08 08:13:04;;;;;;;120.47;114.75;;;;;;;27.45;36.85;101433.00;5092834;28;20086;-72
2023/07/08 08:15:30;;;;;;;117.05;111.20;;;;;;;27.52;36.89;101436.03;5093445;28;20027;-71
2023/07/08 08:17:56;;;;;;;114.00;108.60;;;;;;;27.59;36.69;101435.47;5093811;28;20388;-71
2023/07/08 08:20:24;;;;;;;117.47;111.72;;;;;;;27.66;36.65;101434.91;5093635;28;20036;-72
2023/07/08 08:22:50;;;;;;;116.38;110.78;;;;;;;27.72;36.78;101445.47;5093542;28;20066;-71
2023/07/08 08:25:17;;;;;;;117.07;111.63;;;;;;;27.78;36.88;101454.38;5094038;28;20455;-73
2023/07/08 08:27:43;;;;;;;120.00;114.07;;;;;;;27.87;36.79;101457.94;5092174;28;20028;-72
2023/07/08 08:30:09;;;;;;;118.70;113.03;;;;;;;27.93;36.45;101453.75;5093515;28;20040;-71
2023/07/08 08:32:35;;;;;;;120.20;114.18;;;;;;;28.00;36.43;101458.75;5093420;28;20027;-74
2023/07/08 08:35:00;;;;;;;123.00;117.28;;;;;;;28.07;36.62;101458.97;5094010;28;20036;-72
2023/07/08 08:37:26;;;;;;;120.13;114.60;;;;;;;28.16;36.67;101461.66;5093474;28;20024;-72
2023/07/08 08:39:51;;;;;;;121.47;115.25;;;;;;;28.23;36.23;101464.69;5093358;28;20034;-72
2023/07/08 08:42:23;;;;;;;119.03;113.45;;;;;;;28.32;36.44;101454.25;5092170;28;20032;-71
2023/07/08 08:44:49;;;;;;;120.82;114.82;;;;;;;28.40;35.98;101463.63;5093578;28;20028;-72
2023/07/08 08:47:33;;;;;;;126.78;120.78;;;;;;;28.50;36.15;101473.53;5091891;28;20082;-72
2023/07/08 08:50:18;;;;;;;120.47;114.90;;;;;;;28.57;36.20;101469.00;5093338;28;20028;-71
2023/07/08 08:52:43;;;;;;;124.57;118.30;;;;;;;28.66;36.25;101475.25;5093868;28;20032;-71
2023/07/08 08:55:13;;;;;;;122.85;117.07;;;;;;;28.76;36.27;101475.97;5092128;28;20038;-71
2023/07/08 08:57:50;;;;;;;125.43;119.80;;;;;;;28.84;36.17;101475.03;5095872;28;20032;-77
2023/07/08 09:00:23;;;;;;;122.28;116.05;;;;;;;28.92;35.84;101483.22;5097312;28;20077;-71
2023/07/08 09:03:22;;;;;;;124.32;118.55;;;;;;;29.02;35.94;101478.34;5097290;28;20032;-72
2023/07/08 09:05:47;;;;;;;121.22;115.47;;;;;;;29.12;35.67;101470.34;5097393;28;20032;-72
2023/07/08 09:08:20;;;;;;;127.47;121.47;;;;;;;29.21;35.63;101475.78;5097208;28;20476;-73
2023/07/08 09:11:05;;;;;;;132.68;125.70;;;;;;;29.31;35.75;101468.91;5097532;28;20337;-72
2023/07/08 09:13:36;;;;;;;128.57;122.43;;;;;;;29.41;35.15;101467.59;5097436;28;20024;-72
2023/07/08 09:16:14;;;;;;;129.80;123.88;;;;;;;29.50;35.27;101469.06;5095683;28;20027;-72
2023/07/08 09:19:07;;;;;;;137.48;130.82;;;;;;;29.60;35.01;101467.75;5097819;28;20464;-73
2023/07/08 09:21:45;;;;;;;132.70;125.97;;;;;;;29.72;34.91;101466.91;5096465;28;20187;-70
2023/07/08 09:24:33;;;;;;;133.82;127.63;;;;;;;29.81;34.75;101462.00;5097105;28;20036;-69
2023/07/08 09:27:01;;;;;;;131.98;125.55;;;;;;;29.91;34.68;101463.44;5067195;28;20036;-73
2023/07/08 09:29:27;;;;;;;;;;;;;;;30.00;34.86;101460.47;5097228;28;20028;-74
2023/07/08 09:31:53;;;;;;;137.70;131.30;;;;;;;30.09;34.45;101461.94;5095342;28;19919;-70
2023/07/08 09:34:22;;;;;;;139.27;132.65;;;;;;;30.19;34.40;101449.44;5096695;28;20105;-72
2023/07/08 09:36:49;;;;;;;140.63;134.23;;;;;;;30.28;33.98;101446.50;5096263;28;20545;-70
2023/07/08 09:39:20;;;;;;;131.75;125.78;;;;;;;30.39;33.88;101455.91;5096502;28;20036;-70
2023/07/08 09:41:47;;;;;;;140.02;133.63;;;;;;;30.48;33.49;101453.75;5096435;28;20077;-71
2023/07/08 09:44:13;;;;;;;141.10;134.70;;;;;;;30.57;33.86;101451.59;5096661;28;20028;-71
2023/07/08 09:46:38;;;;;;;138.73;132.27;;;;;;;30.67;34.30;101450.22;5096642;28;20039;-71
2023/07/08 09:49:18;;;;;;;145.57;139.02;;;;;;;30.77;34.09;101446.88;5095452;28;20028;-71
2023/07/08 09:51:45;;;;;;;139.73;132.85;;;;;;;30.87;33.93;101445.53;5095557;28;20036;-81
2023/07/08 09:54:10;;;;;;;140.80;134.00;;;;;;;30.97;33.66;101444.97;5096304;28;20028;-71
2023/07/08 09:56:42;;;;;;;145.05;137.75;;;;;;;31.09;33.32;101443.19;5097006;28;20089;-72
2023/07/08 09:59:13;;;;;;;143.57;136.98;;;;;;;31.19;32.79;101442.59;5096136;28;20034;-72
2023/07/08 10:01:40;;;;;;;147.23;140.32;;;;;;;31.29;32.49;101438.41;5096382;28;20028;-72
2023/07/08 10:04:06;;;;;;;147.07;140.40;;;;;;;31.38;32.56;101437.06;5095622;28;20028;-72
2023/07/08 10:06:35;;;;;;;149.48;142.60;;;;;;;31.48;32.04;101442.03;5096495;28;20479;-73
2023/07/08 10:09:09;;;;;;;152.57;145.45;;;;;;;31.59;31.97;101441.44;5094501;28;20456;-72
2023/07/08 10:11:44;;;;;;;148.43;141.82;;;;;;;31.69;31.41;101452.81;5096440;28;20056;-72
2023/07/08 10:14:27;;;;;;;145.93;139.43;;;;;;;31.80;30.92;101450.22;5096383;28;20032;-71
2023/07/08 10:16:53;;;;;;;152.32;145.43;;;;;;;31.90;30.64;101451.56;5094511;28;20024;-71
2023/07/08 10:19:20;;;;;;;151.52;144.60;;;;;;;31.99;30.43;101449.38;5097035;28;20047;-71
2023/07/08 10:21:54;;;;;;;161.00;153.35;;;;;;;32.10;29.54;101446.75;5095777;28;20024;-71
2023/07/08 10:24:41;;;;;;;154.57;147.18;;;;;;;32.21;29.20;101450.56;5095474;28;20028;-71
2023/07/08 10:27:12;;;;;;;159.40;152.40;;;;;;;32.30;29.83;101451.09;5095644;28;20085;-73
2023/07/08 10:30:01;;;;;;;158.98;152.00;;;;;;;32.41;29.70;101456.88;5095296;28;20039;-72
2023/07/08 10:32:43;;;;;;;163.73;156.48;;;;;;;32.52;29.36;101460.66;5095491;28;20433;-72
2023/07/08 10:35:20;;;;;;;153.90;146.95;;;;;;;32.63;29.02;101463.63;5094078;28;20047;-76
2023/07/08 10:37:51;;;;;;;161.55;154.45;;;;;;;32.74;28.87;101461.81;5095955;28;20430;-72
2023/07/08 10:40:28;;;;;;;165.45;158.35;;;;;;;32.86;29.23;101459.94;5094062;28;20032;-71
2023/07/08 10:43:07;;;;;;;156.73;149.73;;;;;;;32.95;29.02;101452.88;5095275;28;20472;-72
2023/07/08 10:45:44;;;;;;;161.13;154.00;;;;;;;33.08;28.55;101463.88;5095381;28;20145;-73
2023/07/08 10:48:27;;;;;;;163.73;156.17;;;;;;;33.17;28.90;101462.41;5095136;28;20036;-73
2023/07/08 10:51:21;;;;;;;165.38;157.75;;;;;;;33.29;29.65;101460.53;5095438;28;20261;-71
2023/07/08 10:54:34;;;;;;;162.35;154.80;;;;;;;33.40;29.11;101464.28;5095556;28;20479;-71
2023/07/08 10:57:37;;;;;;;166.75;159.35;;;;;;;33.52;29.27;101455.63;5052229;28;20477;-71
2023/07/08 11:00:22;;;;;;;169.10;161.43;;;;;;;33.65;29.27;101459.00;5052383;28;20032;-71